sensor_id;sensor_type;location;lat;lon;timestamp;temperature;humidity
78884;SHT31;68262;51.968;5.672;2023-04-24T00:02:01;12.8;70.3
78884;SHT31;68262;51.968;5.672;2023-04-24T00:04:31;12.8;69.9
78884;SHT31;68262;51.968;5.672;2023-04-24T00:07:00;12.8;69.6
78884;SHT31;68262;51.968;5.672;2023-04-24T00:09:30;12.8;69.5
78884;SHT31;68262;51.968;5.672;2023-04-24T00:12:00;12.8;69.9
78884;SHT31;68262;51.968;5.672;2023-04-24T00:14:31;12.8;69.6
78884;SHT31;68262;51.968;5.672;2023-04-24T00:17:02;12.8;69.9
78884;SHT31;68262;51.968;5.672;2023-04-24T00:19:32;12.8;70.1
78884;SHT31;68262;51.968;5.672;2023-04-24T00:22:01;12.8;69.7
78884;SHT31;68262;51.968;5.672;2023-04-24T00:24:31;12.8;69.9
78884;SHT31;68262;51.968;5.672;2023-04-24T00:27:02;12.8;69.5
78884;SHT31;68262;51.968;5.672;2023-04-24T00:29:32;12.8;69.5
78884;SHT31;68262;51.968;5.672;2023-04-24T00:32:01;12.8;69.6
78884;SHT31;68262;51.968;5.672;2023-04-24T00:34:31;12.8;69.7
78884;SHT31;68262;51.968;5.672;2023-04-24T00:37:00;12.8;69.3
78884;SHT31;68262;51.968;5.672;2023-04-24T00:39:30;12.8;69.2
78884;SHT31;68262;51.968;5.672;2023-04-24T00:42:00;12.8;69.5
78884;SHT31;68262;51.968;5.672;2023-04-24T00:44:29;12.8;69.5
78884;SHT31;68262;51.968;5.672;2023-04-24T00:46:59;12.8;69.4
78884;SHT31;68262;51.968;5.672;2023-04-24T00:49:30;12.8;69.7
78884;SHT31;68262;51.968;5.672;2023-04-24T00:52:01;12.8;70.0
78884;SHT31;68262;51.968;5.672;2023-04-24T00:54:34;12.8;70.3
78884;SHT31;68262;51.968;5.672;2023-04-24T00:57:04;12.8;70.5
78884;SHT31;68262;51.968;5.672;2023-04-24T00:59:34;12.8;70.6
78884;SHT31;68262;51.968;5.672;2023-04-24T01:02:04;12.8;70.8
78884;SHT31;68262;51.968;5.672;2023-04-24T01:04:35;12.8;70.8
78884;SHT31;68262;51.968;5.672;2023-04-24T01:07:05;12.8;70.8
78884;SHT31;68262;51.968;5.672;2023-04-24T01:09:40;12.8;69.3
78884;SHT31;68262;51.968;5.672;2023-04-24T01:12:10;12.8;68.7
78884;SHT31;68262;51.968;5.672;2023-04-24T01:14:40;12.8;69.7
78884;SHT31;68262;51.968;5.672;2023-04-24T01:17:11;12.8;69.6
78884;SHT31;68262;51.968;5.672;2023-04-24T01:19:41;12.8;69.6
78884;SHT31;68262;51.968;5.672;2023-04-24T01:22:13;12.8;69.5
78884;SHT31;68262;51.968;5.672;2023-04-24T01:24:43;12.7;69.3
78884;SHT31;68262;51.968;5.672;2023-04-24T01:27:14;12.7;69.3
78884;SHT31;68262;51.968;5.672;2023-04-24T01:29:46;12.7;69.8
78884;SHT31;68262;51.968;5.672;2023-04-24T01:32:19;12.7;69.9
78884;SHT31;68262;51.968;5.672;2023-04-24T01:34:50;12.7;70.0
78884;SHT31;68262;51.968;5.672;2023-04-24T01:37:20;12.7;70.3
78884;SHT31;68262;51.968;5.672;2023-04-24T01:39:49;12.7;70.3
78884;SHT31;68262;51.968;5.672;2023-04-24T01:42:19;12.7;70.6
78884;SHT31;68262;51.968;5.672;2023-04-24T01:44:50;12.7;70.7
78884;SHT31;68262;51.968;5.672;2023-04-24T01:47:22;12.7;70.6
78884;SHT31;68262;51.968;5.672;2023-04-24T01:49:52;12.7;70.8
78884;SHT31;68262;51.968;5.672;2023-04-24T01:52:21;12.7;70.9
78884;SHT31;68262;51.968;5.672;2023-04-24T01:54:52;12.7;70.8
78884;SHT31;68262;51.968;5.672;2023-04-24T01:57:25;12.8;71.2
78884;SHT31;68262;51.968;5.672;2023-04-24T01:59:55;12.8;71.2
78884;SHT31;68262;51.968;5.672;2023-04-24T02:02:25;12.8;71.3
78884;SHT31;68262;51.968;5.672;2023-04-24T02:04:54;12.8;71.3
78884;SHT31;68262;51.968;5.672;2023-04-24T02:07:24;12.8;71.2
78884;SHT31;68262;51.968;5.672;2023-04-24T02:09:53;12.9;71.3
78884;SHT31;68262;51.968;5.672;2023-04-24T02:12:23;12.9;71.1
78884;SHT31;68262;51.968;5.672;2023-04-24T02:14:52;12.9;70.9
78884;SHT31;68262;51.968;5.672;2023-04-24T02:17:22;12.9;71.1
78884;SHT31;68262;51.968;5.672;2023-04-24T02:19:52;12.9;71.3
78884;SHT31;68262;51.968;5.672;2023-04-24T02:22:21;12.9;71.2
78884;SHT31;68262;51.968;5.672;2023-04-24T02:24:50;13.0;70.8
78884;SHT31;68262;51.968;5.672;2023-04-24T02:27:20;13.0;71.4
78884;SHT31;68262;51.968;5.672;2023-04-24T02:29:49;12.9;71.5
78884;SHT31;68262;51.968;5.672;2023-04-24T02:32:20;12.9;71.8
78884;SHT31;68262;51.968;5.672;2023-04-24T02:34:50;12.9;72.1
78884;SHT31;68262;51.968;5.672;2023-04-24T02:37:19;12.9;72.4
78884;SHT31;68262;51.968;5.672;2023-04-24T02:39:49;12.9;72.4
78884;SHT31;68262;51.968;5.672;2023-04-24T02:42:18;12.9;71.7
78884;SHT31;68262;51.968;5.672;2023-04-24T02:44:48;12.9;71.2
78884;SHT31;68262;51.968;5.672;2023-04-24T02:47:18;12.8;70.8
78884;SHT31;68262;51.968;5.672;2023-04-24T02:49:48;12.8;71.0
78884;SHT31;68262;51.968;5.672;2023-04-24T02:52:17;12.8;70.9
78884;SHT31;68262;51.968;5.672;2023-04-24T02:54:46;12.8;70.6
78884;SHT31;68262;51.968;5.672;2023-04-24T02:57:16;12.7;70.2
78884;SHT31;68262;51.968;5.672;2023-04-24T02:59:46;12.7;69.9
78884;SHT31;68262;51.968;5.672;2023-04-24T03:02:15;12.7;70.2
78884;SHT31;68262;51.968;5.672;2023-04-24T03:04:44;12.7;70.6
78884;SHT31;68262;51.968;5.672;2023-04-24T03:07:15;12.7;70.8
78884;SHT31;68262;51.968;5.672;2023-04-24T03:09:48;12.7;71.0
78884;SHT31;68262;51.968;5.672;2023-04-24T03:12:17;12.7;71.5
78884;SHT31;68262;51.968;5.672;2023-04-24T03:14:47;12.7;71.8
78884;SHT31;68262;51.968;5.672;2023-04-24T03:17:16;12.7;72.3
78884;SHT31;68262;51.968;5.672;2023-04-24T03:19:46;12.7;72.6
78884;SHT31;68262;51.968;5.672;2023-04-24T03:22:15;12.7;72.5
78884;SHT31;68262;51.968;5.672;2023-04-24T03:24:47;12.7;72.1
78884;SHT31;68262;51.968;5.672;2023-04-24T03:27:16;12.7;72.0
78884;SHT31;68262;51.968;5.672;2023-04-24T03:29:46;12.7;71.6
78884;SHT31;68262;51.968;5.672;2023-04-24T03:32:17;12.7;70.7
78884;SHT31;68262;51.968;5.672;2023-04-24T03:34:47;12.7;71.2
78884;SHT31;68262;51.968;5.672;2023-04-24T03:37:17;12.7;71.3
78884;SHT31;68262;51.968;5.672;2023-04-24T03:39:46;12.7;71.2
78884;SHT31;68262;51.968;5.672;2023-04-24T03:42:16;12.7;71.3
78884;SHT31;68262;51.968;5.672;2023-04-24T03:44:45;12.6;71.2
78884;SHT31;68262;51.968;5.672;2023-04-24T03:47:15;12.6;71.1
78884;SHT31;68262;51.968;5.672;2023-04-24T03:49:45;12.6;71.2
78884;SHT31;68262;51.968;5.672;2023-04-24T03:52:14;12.6;71.3
78884;SHT31;68262;51.968;5.672;2023-04-24T03:54:44;12.6;71.3
78884;SHT31;68262;51.968;5.672;2023-04-24T03:57:13;12.6;71.2
78884;SHT31;68262;51.968;5.672;2023-04-24T03:59:43;12.5;71.1
78884;SHT31;68262;51.968;5.672;2023-04-24T04:02:12;12.5;71.2
78884;SHT31;68262;51.968;5.672;2023-04-24T04:04:42;12.5;71.1
78884;SHT31;68262;51.968;5.672;2023-04-24T04:07:11;12.4;71.6
78884;SHT31;68262;51.968;5.672;2023-04-24T04:09:42;12.4;71.2
78884;SHT31;68262;51.968;5.672;2023-04-24T04:12:12;12.4;70.7
78884;SHT31;68262;51.968;5.672;2023-04-24T04:14:42;12.4;71.2
78884;SHT31;68262;51.968;5.672;2023-04-24T04:17:11;12.4;71.5
78884;SHT31;68262;51.968;5.672;2023-04-24T04:19:41;12.4;71.1
78884;SHT31;68262;51.968;5.672;2023-04-24T04:22:10;12.3;70.9
78884;SHT31;68262;51.968;5.672;2023-04-24T04:24:40;12.3;71.8
78884;SHT31;68262;51.968;5.672;2023-04-24T04:27:09;12.2;71.6
78884;SHT31;68262;51.968;5.672;2023-04-24T04:29:39;12.2;72.0
78884;SHT31;68262;51.968;5.672;2023-04-24T04:32:11;12.2;72.1
78884;SHT31;68262;51.968;5.672;2023-04-24T04:34:40;12.1;72.2
78884;SHT31;68262;51.968;5.672;2023-04-24T04:37:10;12.1;72.2
78884;SHT31;68262;51.968;5.672;2023-04-24T04:39:40;12.1;72.5
78884;SHT31;68262;51.968;5.672;2023-04-24T04:42:09;12.0;72.6
78884;SHT31;68262;51.968;5.672;2023-04-24T04:44:39;12.0;72.6
78884;SHT31;68262;51.968;5.672;2023-04-24T04:47:08;12.0;72.7
78884;SHT31;68262;51.968;5.672;2023-04-24T04:49:38;11.9;73.5
78884;SHT31;68262;51.968;5.672;2023-04-24T04:52:08;11.9;73.9
78884;SHT31;68262;51.968;5.672;2023-04-24T04:54:38;11.9;73.9
78884;SHT31;68262;51.968;5.672;2023-04-24T04:57:07;11.8;73.2
78884;SHT31;68262;51.968;5.672;2023-04-24T04:59:37;11.8;73.7
78884;SHT31;68262;51.968;5.672;2023-04-24T05:02:06;11.8;74.3
78884;SHT31;68262;51.968;5.672;2023-04-24T05:04:36;11.8;74.5
78884;SHT31;68262;51.968;5.672;2023-04-24T05:07:05;11.8;74.4
78884;SHT31;68262;51.968;5.672;2023-04-24T05:09:35;11.8;74.2
78884;SHT31;68262;51.968;5.672;2023-04-24T05:12:04;11.8;74.3
78884;SHT31;68262;51.968;5.672;2023-04-24T05:14:34;11.8;74.2
78884;SHT31;68262;51.968;5.672;2023-04-24T05:17:04;11.9;73.7
78884;SHT31;68262;51.968;5.672;2023-04-24T05:19:33;11.9;73.6
78884;SHT31;68262;51.968;5.672;2023-04-24T05:22:05;11.9;73.2
78884;SHT31;68262;51.968;5.672;2023-04-24T05:24:35;11.9;73.7
78884;SHT31;68262;51.968;5.672;2023-04-24T05:27:05;12.0;74.0
78884;SHT31;68262;51.968;5.672;2023-04-24T05:29:34;12.0;74.3
78884;SHT31;68262;51.968;5.672;2023-04-24T05:32:04;12.0;73.4
78884;SHT31;68262;51.968;5.672;2023-04-24T05:34:33;12.1;73.7
78884;SHT31;68262;51.968;5.672;2023-04-24T05:37:03;12.1;73.6
78884;SHT31;68262;51.968;5.672;2023-04-24T05:39:36;12.1;74.1
78884;SHT31;68262;51.968;5.672;2023-04-24T05:42:06;12.1;73.8
78884;SHT31;68262;51.968;5.672;2023-04-24T05:44:36;12.2;74.0
78884;SHT31;68262;51.968;5.672;2023-04-24T05:47:05;12.2;73.3
78884;SHT31;68262;51.968;5.672;2023-04-24T05:49:34;12.3;74.0
78884;SHT31;68262;51.968;5.672;2023-04-24T05:52:04;12.3;73.1
78884;SHT31;68262;51.968;5.672;2023-04-24T05:54:36;12.3;73.3
78884;SHT31;68262;51.968;5.672;2023-04-24T05:57:05;12.4;73.3
78884;SHT31;68262;51.968;5.672;2023-04-24T05:59:37;12.4;73.1
78884;SHT31;68262;51.968;5.672;2023-04-24T06:02:07;12.5;73.6
78884;SHT31;68262;51.968;5.672;2023-04-24T06:04:37;12.5;72.7
78884;SHT31;68262;51.968;5.672;2023-04-24T06:07:07;12.5;72.1
78884;SHT31;68262;51.968;5.672;2023-04-24T06:09:36;12.6;72.9
78884;SHT31;68262;51.968;5.672;2023-04-24T06:12:06;12.6;72.2
78884;SHT31;68262;51.968;5.672;2023-04-24T06:14:36;12.6;72.0
78884;SHT31;68262;51.968;5.672;2023-04-24T06:17:07;12.6;72.1
78884;SHT31;68262;51.968;5.672;2023-04-24T06:19:37;12.6;71.7
78884;SHT31;68262;51.968;5.672;2023-04-24T06:22:06;12.6;72.0
78884;SHT31;68262;51.968;5.672;2023-04-24T06:24:39;12.6;71.7
78884;SHT31;68262;51.968;5.672;2023-04-24T06:27:09;12.7;71.8
78884;SHT31;68262;51.968;5.672;2023-04-24T06:29:38;12.7;72.0
78884;SHT31;68262;51.968;5.672;2023-04-24T06:32:09;12.7;72.8
78884;SHT31;68262;51.968;5.672;2023-04-24T06:34:39;12.7;71.9
78884;SHT31;68262;51.968;5.672;2023-04-24T06:37:11;12.7;71.7
78884;SHT31;68262;51.968;5.672;2023-04-24T06:39:41;12.7;71.2
78884;SHT31;68262;51.968;5.672;2023-04-24T06:42:10;12.7;71.6
78884;SHT31;68262;51.968;5.672;2023-04-24T06:44:42;12.7;71.2
78884;SHT31;68262;51.968;5.672;2023-04-24T06:47:12;12.7;71.2
78884;SHT31;68262;51.968;5.672;2023-04-24T06:49:42;12.7;71.6
78884;SHT31;68262;51.968;5.672;2023-04-24T06:52:12;12.7;71.0
78884;SHT31;68262;51.968;5.672;2023-04-24T06:54:41;12.6;71.3
78884;SHT31;68262;51.968;5.672;2023-04-24T06:57:11;12.6;71.7
78884;SHT31;68262;51.968;5.672;2023-04-24T06:59:42;12.6;72.5
78884;SHT31;68262;51.968;5.672;2023-04-24T07:02:12;12.5;71.6
78884;SHT31;68262;51.968;5.672;2023-04-24T07:04:41;12.5;70.8
78884;SHT31;68262;51.968;5.672;2023-04-24T07:07:12;12.5;71.2
78884;SHT31;68262;51.968;5.672;2023-04-24T07:09:45;12.4;71.1
78884;SHT31;68262;51.968;5.672;2023-04-24T07:12:15;12.4;71.6
78884;SHT31;68262;51.968;5.672;2023-04-24T07:14:47;12.3;71.5
78884;SHT31;68262;51.968;5.672;2023-04-24T07:17:17;12.3;71.7
78884;SHT31;68262;51.968;5.672;2023-04-24T07:19:47;12.2;72.1
78884;SHT31;68262;51.968;5.672;2023-04-24T07:22:17;12.2;71.9
78884;SHT31;68262;51.968;5.672;2023-04-24T07:24:46;12.1;71.7
78884;SHT31;68262;51.968;5.672;2023-04-24T07:27:16;12.1;72.0
78884;SHT31;68262;51.968;5.672;2023-04-24T07:29:46;12.1;72.4
78884;SHT31;68262;51.968;5.672;2023-04-24T07:32:15;12.1;72.2
78884;SHT31;68262;51.968;5.672;2023-04-24T07:34:44;12.0;72.7
78884;SHT31;68262;51.968;5.672;2023-04-24T07:37:14;12.0;71.7
78884;SHT31;68262;51.968;5.672;2023-04-24T07:39:43;12.0;72.4
78884;SHT31;68262;51.968;5.672;2023-04-24T07:42:13;12.0;72.3
78884;SHT31;68262;51.968;5.672;2023-04-24T07:44:43;12.0;72.0
78884;SHT31;68262;51.968;5.672;2023-04-24T07:47:14;12.0;71.5
78884;SHT31;68262;51.968;5.672;2023-04-24T07:49:45;12.0;71.4
78884;SHT31;68262;51.968;5.672;2023-04-24T07:52:15;12.0;71.4
78884;SHT31;68262;51.968;5.672;2023-04-24T07:54:45;11.9;71.6
78884;SHT31;68262;51.968;5.672;2023-04-24T07:57:14;11.9;71.2
78884;SHT31;68262;51.968;5.672;2023-04-24T07:59:44;11.9;70.7
78884;SHT31;68262;51.968;5.672;2023-04-24T08:02:13;11.9;70.7
78884;SHT31;68262;51.968;5.672;2023-04-24T08:04:43;11.9;71.3
78884;SHT31;68262;51.968;5.672;2023-04-24T08:07:12;11.9;70.8
78884;SHT31;68262;51.968;5.672;2023-04-24T08:09:43;11.9;71.0
78884;SHT31;68262;51.968;5.672;2023-04-24T08:12:12;11.9;71.6
78884;SHT31;68262;51.968;5.672;2023-04-24T08:14:42;11.9;71.8
78884;SHT31;68262;51.968;5.672;2023-04-24T08:17:12;11.8;71.5
78884;SHT31;68262;51.968;5.672;2023-04-24T08:19:41;11.8;71.3
78884;SHT31;68262;51.968;5.672;2023-04-24T08:22:15;11.8;71.7
78884;SHT31;68262;51.968;5.672;2023-04-24T08:24:45;11.8;71.6
78884;SHT31;68262;51.968;5.672;2023-04-24T08:27:14;11.8;71.8
78884;SHT31;68262;51.968;5.672;2023-04-24T08:29:44;11.8;71.6
78884;SHT31;68262;51.968;5.672;2023-04-24T08:32:13;11.8;72.0
78884;SHT31;68262;51.968;5.672;2023-04-24T08:34:42;11.8;71.9
78884;SHT31;68262;51.968;5.672;2023-04-24T08:37:13;11.8;71.9
78884;SHT31;68262;51.968;5.672;2023-04-24T08:39:44;11.8;71.7
78884;SHT31;68262;51.968;5.672;2023-04-24T08:42:14;11.9;71.7
78884;SHT31;68262;51.968;5.672;2023-04-24T08:44:44;11.9;72.1
78884;SHT31;68262;51.968;5.672;2023-04-24T08:47:15;11.9;71.6
78884;SHT31;68262;51.968;5.672;2023-04-24T08:49:48;11.9;71.7
78884;SHT31;68262;51.968;5.672;2023-04-24T08:52:18;11.9;71.7
78884;SHT31;68262;51.968;5.672;2023-04-24T08:54:51;11.9;71.6
78884;SHT31;68262;51.968;5.672;2023-04-24T08:57:22;11.8;71.2
78884;SHT31;68262;51.968;5.672;2023-04-24T08:59:52;11.8;71.4
78884;SHT31;68262;51.968;5.672;2023-04-24T09:02:23;11.8;71.6
78884;SHT31;68262;51.968;5.672;2023-04-24T09:04:53;11.8;70.4
78884;SHT31;68262;51.968;5.672;2023-04-24T09:07:24;11.8;70.3
78884;SHT31;68262;51.968;5.672;2023-04-24T09:09:56;11.8;70.4
78884;SHT31;68262;51.968;5.672;2023-04-24T09:12:26;11.8;70.3
78884;SHT31;68262;51.968;5.672;2023-04-24T09:14:58;11.8;70.1
78884;SHT31;68262;51.968;5.672;2023-04-24T09:17:31;11.8;70.4
78884;SHT31;68262;51.968;5.672;2023-04-24T09:20:00;11.9;68.9
78884;SHT31;68262;51.968;5.672;2023-04-24T09:22:31;11.9;68.7
78884;SHT31;68262;51.968;5.672;2023-04-24T09:25:05;11.9;68.7
78884;SHT31;68262;51.968;5.672;2023-04-24T09:27:36;11.9;68.1
78884;SHT31;68262;51.968;5.672;2023-04-24T09:30:06;11.9;66.6
78884;SHT31;68262;51.968;5.672;2023-04-24T09:32:36;11.9;66.8
78884;SHT31;68262;51.968;5.672;2023-04-24T09:35:11;12.0;66.0
78884;SHT31;68262;51.968;5.672;2023-04-24T09:37:43;12.0;66.8
78884;SHT31;68262;51.968;5.672;2023-04-24T09:40:15;12.0;66.3
78884;SHT31;68262;51.968;5.672;2023-04-24T09:42:46;12.0;66.1
78884;SHT31;68262;51.968;5.672;2023-04-24T09:45:20;12.0;66.1
78884;SHT31;68262;51.968;5.672;2023-04-24T09:47:53;12.0;65.7
78884;SHT31;68262;51.968;5.672;2023-04-24T09:50:23;12.0;64.7
78884;SHT31;68262;51.968;5.672;2023-04-24T09:53:01;12.0;65.0
78884;SHT31;68262;51.968;5.672;2023-04-24T09:55:31;12.1;64.8
78884;SHT31;68262;51.968;5.672;2023-04-24T09:58:01;12.1;64.5
78884;SHT31;68262;51.968;5.672;2023-04-24T10:00:33;12.1;63.7
78884;SHT31;68262;51.968;5.672;2023-04-24T10:03:04;12.2;64.3
78884;SHT31;68262;51.968;5.672;2023-04-24T10:05:37;12.2;65.4
78884;SHT31;68262;51.968;5.672;2023-04-24T10:08:08;12.3;64.0
78884;SHT31;68262;51.968;5.672;2023-04-24T10:10:39;12.4;62.4
78884;SHT31;68262;51.968;5.672;2023-04-24T10:13:10;12.4;62.3
78884;SHT31;68262;51.968;5.672;2023-04-24T10:15:41;12.5;63.7
78884;SHT31;68262;51.968;5.672;2023-04-24T10:18:11;12.6;62.4
78884;SHT31;68262;51.968;5.672;2023-04-24T10:20:41;12.7;62.0
78884;SHT31;68262;51.968;5.672;2023-04-24T10:23:10;12.8;60.3
78884;SHT31;68262;51.968;5.672;2023-04-24T10:25:42;12.9;57.6
78884;SHT31;68262;51.968;5.672;2023-04-24T10:28:12;13.0;57.9
78884;SHT31;68262;51.968;5.672;2023-04-24T10:30:43;13.0;55.8
78884;SHT31;68262;51.968;5.672;2023-04-24T10:33:15;13.1;56.9
78884;SHT31;68262;51.968;5.672;2023-04-24T10:35:50;13.1;55.6
78884;SHT31;68262;51.968;5.672;2023-04-24T10:38:24;13.1;55.5
78884;SHT31;68262;51.968;5.672;2023-04-24T10:40:57;13.1;55.6
78884;SHT31;68262;51.968;5.672;2023-04-24T10:43:33;13.2;55.2
78884;SHT31;68262;51.968;5.672;2023-04-24T10:46:04;13.2;55.4
78884;SHT31;68262;51.968;5.672;2023-04-24T10:48:34;13.2;54.5
78884;SHT31;68262;51.968;5.672;2023-04-24T10:51:04;13.2;55.0
78884;SHT31;68262;51.968;5.672;2023-04-24T10:53:36;13.2;54.9
78884;SHT31;68262;51.968;5.672;2023-04-24T10:56:08;13.2;55.8
78884;SHT31;68262;51.968;5.672;2023-04-24T10:58:41;13.1;54.8
78884;SHT31;68262;51.968;5.672;2023-04-24T11:01:25;13.1;56.2
78884;SHT31;68262;51.968;5.672;2023-04-24T11:03:59;13.1;54.7
78884;SHT31;68262;51.968;5.672;2023-04-24T11:06:31;13.0;56.5
78884;SHT31;68262;51.968;5.672;2023-04-24T11:09:07;13.0;56.1
78884;SHT31;68262;51.968;5.672;2023-04-24T11:11:38;13.0;55.1
78884;SHT31;68262;51.968;5.672;2023-04-24T11:14:14;13.1;55.7
78884;SHT31;68262;51.968;5.672;2023-04-24T11:16:45;13.1;56.0
78884;SHT31;68262;51.968;5.672;2023-04-24T11:19:21;13.1;56.6
78884;SHT31;68262;51.968;5.672;2023-04-24T11:21:58;13.1;56.9
78884;SHT31;68262;51.968;5.672;2023-04-24T11:24:48;13.1;56.2
78884;SHT31;68262;51.968;5.672;2023-04-24T11:27:16;13.1;55.7
78884;SHT31;68262;51.968;5.672;2023-04-24T11:29:48;13.1;56.5
78884;SHT31;68262;51.968;5.672;2023-04-24T11:32:23;13.2;57.8
78884;SHT31;68262;51.968;5.672;2023-04-24T11:34:55;13.3;58.8
78884;SHT31;68262;51.968;5.672;2023-04-24T11:37:27;13.4;58.1
78884;SHT31;68262;51.968;5.672;2023-04-24T11:39:58;13.6;57.9
78884;SHT31;68262;51.968;5.672;2023-04-24T11:42:28;13.8;54.6
78884;SHT31;68262;51.968;5.672;2023-04-24T11:44:57;13.9;54.7
78884;SHT31;68262;51.968;5.672;2023-04-24T11:47:31;13.9;52.8
78884;SHT31;68262;51.968;5.672;2023-04-24T11:50:04;14.0;53.4
78884;SHT31;68262;51.968;5.672;2023-04-24T11:52:37;14.0;53.3
78884;SHT31;68262;51.968;5.672;2023-04-24T11:55:24;14.0;53.4
78884;SHT31;68262;51.968;5.672;2023-04-24T11:57:57;13.9;54.8
78884;SHT31;68262;51.968;5.672;2023-04-24T12:00:28;13.9;54.8
78884;SHT31;68262;51.968;5.672;2023-04-24T12:03:07;13.9;57.2
78884;SHT31;68262;51.968;5.672;2023-04-24T12:05:38;13.8;56.9
78884;SHT31;68262;51.968;5.672;2023-04-24T12:08:07;13.7;57.4
78884;SHT31;68262;51.968;5.672;2023-04-24T12:10:37;13.7;57.8
78884;SHT31;68262;51.968;5.672;2023-04-24T12:13:09;13.6;57.6
78884;SHT31;68262;51.968;5.672;2023-04-24T12:15:40;13.6;58.3
78884;SHT31;68262;51.968;5.672;2023-04-24T12:18:11;13.5;57.3
78884;SHT31;68262;51.968;5.672;2023-04-24T12:20:41;13.5;58.0
78884;SHT31;68262;51.968;5.672;2023-04-24T12:23:11;13.5;55.0
78884;SHT31;68262;51.968;5.672;2023-04-24T12:25:40;13.5;54.8
78884;SHT31;68262;51.968;5.672;2023-04-24T12:28:11;13.5;54.9
78884;SHT31;68262;51.968;5.672;2023-04-24T12:30:43;13.5;55.6
78884;SHT31;68262;51.968;5.672;2023-04-24T12:33:17;13.4;54.7
78884;SHT31;68262;51.968;5.672;2023-04-24T12:35:50;13.4;54.2
78884;SHT31;68262;51.968;5.672;2023-04-24T12:38:25;13.4;53.4
78884;SHT31;68262;51.968;5.672;2023-04-24T12:41:04;13.4;54.3
78884;SHT31;68262;51.968;5.672;2023-04-24T12:43:34;13.4;53.8
78884;SHT31;68262;51.968;5.672;2023-04-24T12:46:05;13.4;54.5
78884;SHT31;68262;51.968;5.672;2023-04-24T12:48:34;13.4;54.9
78884;SHT31;68262;51.968;5.672;2023-04-24T12:51:04;13.4;54.8
78884;SHT31;68262;51.968;5.672;2023-04-24T12:53:33;13.3;54.7
78884;SHT31;68262;51.968;5.672;2023-04-24T12:56:03;13.3;54.8
78884;SHT31;68262;51.968;5.672;2023-04-24T12:58:33;13.3;55.2
78884;SHT31;68262;51.968;5.672;2023-04-24T13:01:02;13.3;55.0
78884;SHT31;68262;51.968;5.672;2023-04-24T13:03:32;13.3;54.0
78884;SHT31;68262;51.968;5.672;2023-04-24T13:06:01;13.3;54.2
78884;SHT31;68262;51.968;5.672;2023-04-24T13:08:31;13.3;55.1
78884;SHT31;68262;51.968;5.672;2023-04-24T13:11:00;13.3;53.6
78884;SHT31;68262;51.968;5.672;2023-04-24T13:13:30;13.4;53.6
78884;SHT31;68262;51.968;5.672;2023-04-24T13:16:01;13.4;53.2
78884;SHT31;68262;51.968;5.672;2023-04-24T13:18:31;13.4;53.5
78884;SHT31;68262;51.968;5.672;2023-04-24T13:21:01;13.4;53.3
78884;SHT31;68262;51.968;5.672;2023-04-24T13:23:30;13.4;53.1
78884;SHT31;68262;51.968;5.672;2023-04-24T13:26:00;13.4;52.0
78884;SHT31;68262;51.968;5.672;2023-04-24T13:28:29;13.4;52.0
78884;SHT31;68262;51.968;5.672;2023-04-24T13:30:59;13.5;52.2
78884;SHT31;68262;51.968;5.672;2023-04-24T13:33:28;13.5;51.6
78884;SHT31;68262;51.968;5.672;2023-04-24T13:35:58;13.6;51.9
78884;SHT31;68262;51.968;5.672;2023-04-24T13:38:27;13.7;51.0
78884;SHT31;68262;51.968;5.672;2023-04-24T13:40:57;13.8;54.0
78884;SHT31;68262;51.968;5.672;2023-04-24T13:43:26;13.9;53.7
78884;SHT31;68262;51.968;5.672;2023-04-24T13:45:56;14.1;50.4
78884;SHT31;68262;51.968;5.672;2023-04-24T13:48:26;14.5;47.0
78884;SHT31;68262;51.968;5.672;2023-04-24T13:50:56;14.9;44.9
78884;SHT31;68262;51.968;5.672;2023-04-24T13:53:25;15.1;45.2
78884;SHT31;68262;51.968;5.672;2023-04-24T13:55:55;15.3;44.4
78884;SHT31;68262;51.968;5.672;2023-04-24T13:58:25;15.5;45.0
78884;SHT31;68262;51.968;5.672;2023-04-24T14:00:55;15.7;44.2
78884;SHT31;68262;51.968;5.672;2023-04-24T14:03:24;15.8;43.5
78884;SHT31;68262;51.968;5.672;2023-04-24T14:05:54;15.8;43.1
78884;SHT31;68262;51.968;5.672;2023-04-24T14:08:23;15.8;43.8
78884;SHT31;68262;51.968;5.672;2023-04-24T14:10:53;15.7;45.1
78884;SHT31;68262;51.968;5.672;2023-04-24T14:13:23;15.7;45.1
78884;SHT31;68262;51.968;5.672;2023-04-24T14:15:52;15.7;45.6
78884;SHT31;68262;51.968;5.672;2023-04-24T14:18:22;15.8;43.5
78884;SHT31;68262;51.968;5.672;2023-04-24T14:20:52;15.9;42.4
78884;SHT31;68262;51.968;5.672;2023-04-24T14:23:21;16.0;41.9
78884;SHT31;68262;51.968;5.672;2023-04-24T14:25:51;16.0;40.4
78884;SHT31;68262;51.968;5.672;2023-04-24T14:28:21;16.1;40.6
78884;SHT31;68262;51.968;5.672;2023-04-24T14:30:51;16.1;41.4
78884;SHT31;68262;51.968;5.672;2023-04-24T14:33:20;16.2;42.0
78884;SHT31;68262;51.968;5.672;2023-04-24T14:35:50;16.2;41.9
78884;SHT31;68262;51.968;5.672;2023-04-24T14:38:21;16.2;40.8
78884;SHT31;68262;51.968;5.672;2023-04-24T14:40:50;16.2;41.5
78884;SHT31;68262;51.968;5.672;2023-04-24T14:43:22;16.2;40.0
78884;SHT31;68262;51.968;5.672;2023-04-24T14:45:52;16.1;40.5
78884;SHT31;68262;51.968;5.672;2023-04-24T14:48:21;16.1;40.0
78884;SHT31;68262;51.968;5.672;2023-04-24T14:50:51;16.0;40.0
78884;SHT31;68262;51.968;5.672;2023-04-24T14:53:21;16.0;40.7
78884;SHT31;68262;51.968;5.672;2023-04-24T14:55:50;15.9;40.7
78884;SHT31;68262;51.968;5.672;2023-04-24T14:58:22;15.8;40.7
78884;SHT31;68262;51.968;5.672;2023-04-24T15:00:51;15.7;42.2
78884;SHT31;68262;51.968;5.672;2023-04-24T15:03:21;15.7;42.2
78884;SHT31;68262;51.968;5.672;2023-04-24T15:05:51;15.7;42.2
78884;SHT31;68262;51.968;5.672;2023-04-24T15:08:21;15.7;42.7
78884;SHT31;68262;51.968;5.672;2023-04-24T15:10:51;15.7;43.5
78884;SHT31;68262;51.968;5.672;2023-04-24T15:13:22;15.7;43.2
78884;SHT31;68262;51.968;5.672;2023-04-24T15:15:53;15.6;43.1
78884;SHT31;68262;51.968;5.672;2023-04-24T15:18:23;15.6;43.6
78884;SHT31;68262;51.968;5.672;2023-04-24T15:20:52;15.5;43.7
78884;SHT31;68262;51.968;5.672;2023-04-24T15:23:22;15.4;42.8
78884;SHT31;68262;51.968;5.672;2023-04-24T15:25:52;15.3;43.3
78884;SHT31;68262;51.968;5.672;2023-04-24T15:28:22;15.2;44.3
78884;SHT31;68262;51.968;5.672;2023-04-24T15:30:51;15.1;44.2
78884;SHT31;68262;51.968;5.672;2023-04-24T15:33:21;15.1;45.8
78884;SHT31;68262;51.968;5.672;2023-04-24T15:35:50;15.0;46.5
78884;SHT31;68262;51.968;5.672;2023-04-24T15:38:20;15.0;45.3
78884;SHT31;68262;51.968;5.672;2023-04-24T15:40:51;15.0;45.0
78884;SHT31;68262;51.968;5.672;2023-04-24T15:43:20;14.9;44.5
78884;SHT31;68262;51.968;5.672;2023-04-24T15:45:51;14.9;44.5
78884;SHT31;68262;51.968;5.672;2023-04-24T15:48:20;14.9;44.1
78884;SHT31;68262;51.968;5.672;2023-04-24T15:50:50;14.9;45.0
78884;SHT31;68262;51.968;5.672;2023-04-24T15:53:19;15.1;46.3
78884;SHT31;68262;51.968;5.672;2023-04-24T15:55:51;15.2;46.1
78884;SHT31;68262;51.968;5.672;2023-04-24T15:58:22;15.4;45.0
78884;SHT31;68262;51.968;5.672;2023-04-24T16:00:51;15.5;44.7
78884;SHT31;68262;51.968;5.672;2023-04-24T16:03:21;15.6;45.4
78884;SHT31;68262;51.968;5.672;2023-04-24T16:05:51;15.6;45.4
78884;SHT31;68262;51.968;5.672;2023-04-24T16:08:21;15.7;45.5
78884;SHT31;68262;51.968;5.672;2023-04-24T16:10:51;15.7;44.5
78884;SHT31;68262;51.968;5.672;2023-04-24T16:13:20;15.7;45.3
78884;SHT31;68262;51.968;5.672;2023-04-24T16:15:50;15.6;44.5
78884;SHT31;68262;51.968;5.672;2023-04-24T16:18:20;15.5;45.1
78884;SHT31;68262;51.968;5.672;2023-04-24T16:20:49;15.4;45.3
78884;SHT31;68262;51.968;5.672;2023-04-24T16:23:19;15.3;44.0